Logo AVAMET
Benvolgut visitant, si us plau, ingressa Recuperar contrasenya

Xàbia Montgó/Castellans

Dades diàries. Acumulats / Últims 30 dies disponibles

Data Temperatura (°C) Humitat rel. (%) Pressió rel. (hPa) Vent (km/h) Precipitació
Mínima Mitjana Màxima Amplitud
tèrmica
Mínima Mitjana Màxima Mínima Mitjana Màxima Predom. Mitjana Ràfega
màxima
Total
(mm)
Índex-n
Mínima Mitjana Màxima Mínima Mitjana Màxima n
0 a 1
P0 max
mm 5'
Dades mensuals acumulades fins l'últim dia disponible
05/2019 11,2 14,9 20,4 18,3 18,8 22,7 29,3 18,1 31 70 95 1.001 1.014 1.024   3,5 51,5 1,2
Dades anuals acumulades fins l'últim dia disponible
2019 5,1 11,3 20,4 14,5 10,3 18,6 29,3 24,2 21 65 98 994 1.019 1.035   3,2 54,7 422,2
Últims 30 dies disponibles
18-05-2019 15,3     16,9     20,0 4,7 45 64 80 1.008 1.009 1.010 SSO 2,2 16,1 0,4
17-05-2019 15,8     19,0     24,2 8,4 31 57 86 1.001 1.005 1.009 SO 6,3 51,5 0,0
16-05-2019 15,3     17,8     20,9 5,6 61 77 87 1.005 1.011 1.014 NW 4,5 27,4 0,0
15-05-2019 14,6     18,3     22,7 8,1 59 73 86 1.010 1.012 1.014 NW 3,4 30,6 0,0
14-05-2019 12,8     18,2     23,5 10,7 31 63 87 1.014 1.018 1.021 SE 3,9 32,2 0,0
13-05-2019 15,1     18,4     22,9 7,8 53 73 90 1.018 1.020 1.021 SSW 2,9 29,0 0,0
12-05-2019 15,2     18,7     23,1 7,9 52 76 92 1.019 1.022 1.024 ESE 2,4 22,5 0,0
11-05-2019 17,3     21,3     26,2 8,9 43 66 83 1.014 1.017 1.022 NW 6,0 29,0 0,0
10-05-2019 20,1     24,3     29,3 9,2 42 55 68 1.012 1.013 1.014 SW 2,1 20,9 0,0
09-05-2019 20,4     22,9     26,9 6,5 42 54 68 1.011 1.012 1.014 W 4,8 32,2 0,0
08-05-2019 14,6     21,4     27,7 13,1 43 70 95 1.009 1.011 1.014 E 2,1 33,8 0,0
07-05-2019 15,6     18,2     22,5 6,9 66 82 92 1.013 1.016 1.019 ESE 1,9 22,5 0,0
06-05-2019 11,9     15,9     20,2 8,3 67 80 91 1.016 1.018 1.019 NW 3,5 27,4 0,0
05-05-2019 13,8     16,0     19,1 5,3 50 68 83 1.011 1.015 1.017 NW 4,3 33,8 0,0
04-05-2019 11,2     15,1     19,3 8,1 44 70 89 1.011 1.012 1.014 NW 3,9 27,4 0,0
03-05-2019 11,9     14,9     19,4 7,5 65 82 91 1.010 1.012 1.015 NW 2,9 22,5 0,8
02-05-2019 14,2     16,0     18,8 4,6 70 83 92 1.013 1.014 1.016 NW 3,9 22,5 0,0
01-05-2019 13,7     16,8     21,0 7,3 44 75 90 1.013 1.015 1.016 ESE 2,1 24,1 0,0
30-04-2019 13,6     16,6     20,8 7,2 57 78 91 1.016 1.017 1.019 SSO 2,7 27,4 0,0
29-04-2019 12,5     15,8     19,1 6,6 60 80 91 1.017 1.019 1.020 ESE 3,1 22,5 0,0
28-04-2019 12,9     17,5     22,3 9,4 33 62 83 1.019 1.022 1.024 SW 2,1 17,7 0,0
27-04-2019 13,4     17,0     21,7 8,3 41 60 82 1.023 1.025 1.026 NW 3,4 20,9 0,0
26-04-2019 12,3     17,1     21,7 9,4 36 50 74 1.018 1.021 1.024 W 4,7 38,6 0,0
25-04-2019 13,9     16,9     20,4 6,5 48 70 90 1.009 1.012 1.017 E 3,2 24,1 0,0
24-04-2019 11,2     15,3     18,4 7,2 44 59 85 1.004 1.009 1.011 SW 5,6 33,8 0,0
23-04-2019 12,9     16,1     21,9 9,0 53 73 87 997 999 1.003 NW 2,6 37,0 1,0
22-04-2019 10,8     12,9     14,9 4,1 74 92 98 1.000 1.001 1.004 SW 5,8 37,0 60,8
21-04-2019 12,6     13,3     13,9 1,3 85 94 98 1.004 1.008 1.014 NW 5,0 32,2 263,2
20-04-2019 13,5     14,1     14,8 1,3 85 92 96 1.012 1.014 1.016 ENE 4,8 30,6 9,4
19-04-2019 13,2     14,0     14,8 1,6 86 93 97 1.014 1.015 1.017 SW 2,9 20,9 11,6
Últims 13 mesos disponibles
04/2019 9,1 12,4 14,3 15,4 13,9 19,3 28,1 19,0 38 69 94 999 1.012 1.025 NW 4,0 49,9 377,2
03/2019 7,9 11,4 14,6 14,9 13,7 19,2 27,1 19,2 38 62 92 1.010 1.022 1.030 NW 2,7 54,7 38,0
02/2019 6,4 9,6 12,0 13,0 13,0 17,3 23,1 16,7 37 65 89 996 1.024 1.033 NW 3,4 53,1 0,2
01/2019 5,1 9,3 12,5 12,5 10,3 16,0 20,9 15,8 38 59 82 1.003 1.018 1.030 W 2,7 48,3 5,6
12/2018 8,1 11,3 14,9 14,5 12,7 18,3 22,9 14,8 42 68 87 1.008 1.024 1.030 NW 1,9 59,5 23,4
11/2018 10,6 13,3 16,5 15,8 14,4 18,6 23,6 13,0 46 69 94 1.000 1.015 1.022 W 2,8 59,5 88,6
10/2018 9,1 16,4 19,9 19,3 14,8 23,1 28,1 19,0 42 73 90 999 1.014 1.025 2,8 53,1 103,0
09/2018 17,4 21,5 23,6 24,2 23,4 28,0 30,9 13,5 66 80 91 1.011 1.018 1.026 2,3 32,2 107,8
08/2018 19,3 23,5 27,3 26,6 24,8 30,7 36,8 17,5 48 73 86 1.012 1.016 1.020 2,7 32,2 131,8
07/2018 20,8 22,6 24,2 26,1 28,2 30,5 33,2 12,4 3,6 51,5 0,0
06/2018 15,1 19,3 22,1 22,9 22,6 27,3 31,2 16,1 3,6 41,8 25,6
05/2018 10,2 15,2 18,0 18,6 17,6 23,0 27,7 17,5 3,4 40,2 10,0
04/2018 8,4 13,0 16,6 16,1 14,0 19,8 24,7 16,3 5,7 54,7 22,2
Tots els anys disponibles
2018 3,8 15,5 27,3 18,7 7,8 22,5 36,8 33,0 42 72 94 999 1.017 1.030 W 3,6 61,2 701,8
2017 0,8 15,4 26,4 18,6 8,4 22,5 34,0 33,2 3,6 67,6 588,4
2016 5,6 15,2 26,8 18,3 12,1 21,9 37,7 32,1 4,2 70,8 353,4
2015 3,4 15,8 21,7 18,9 22,1 22,7 37,9 34,5 4,3 66,0 453,6
2014 4,8 18,1 26,5 21,1 11,6 24,8 34,6 29,8 4,9 61,2 222,6
2013
Temperatura (°C)
Humitat relativa (%)
Velocitat del vent i ràfega màxima (km/h)
Direcció del vent (°)
Pressió (hPa)
Precipitació (mm)
Nota sobre les dades: s'avisa a l'usuari de la provisionalitat i no oficialitat d'aquestes dades
Logo AVAMET blanc
Web allotjada a Sollutia
Llicència de Creative CommonsLa web d'AVAMET i els seus continguts estan subjectes a una llicència de
Reconeixement - No Comercial - Compartir igual
Properes estacions: Altea - Club Nàutic d'Altea (Soci), Ontinyent - El Pilar (Soci), Ares del Maestrat (Ajuntament Soci), Catadau - L'Altet (Inforatge)     - - - - -      Últimes estacions: Jacarilla - centro (MeteOrihuela), Elx - Maitino/Vallverda/Velarde/Matola/Ferriol (Soci TiempoElche.com), Orihuela - Playa Flamenca (MeteOrihuela), Puçol - Ciutat Jardí (Soci), Alzira - La Casella (Soci) - - -